Time;durP1;ratioP1;P1;durP2;ratioP2;P2;SDS_P1;SDS_P2;PMS_P1;PMS_P2;Temp;Humidity;BMP_temperature;BMP_pressure;BME280_temperature;BME280_humidity;BME280_pressure;Samples;Min_cycle;Max_cycle;Signal;HPM_P1;HPM_P2
2022/09/10 00:02:19;;;;;;;12.13;9.50;;;;;;;-141.28;100.00;49764.97;5111097;28;20206;-77
2022/09/10 00:04:46;;;;;;;17.47;10.27;;;;;;;-141.28;100.00;49753.19;5109350;28;20227;-76
2022/09/10 00:07:17;;;;;;;17.10;11.50;;;;;;;-141.28;100.00;49702.19;5094998;28;20214;-75
2022/09/10 00:09:45;;;;;;;18.43;10.30;;;;;;;-141.28;100.00;49682.56;5080607;28;20204;-75
2022/09/10 00:12:15;;;;;;;14.60;10.23;;;;;;;-141.28;100.00;49686.47;5088781;28;20208;-74
2022/09/10 00:14:42;;;;;;;17.50;10.50;;;;;;;-141.28;100.00;49682.56;5085624;28;20552;-75
2022/09/10 00:17:09;;;;;;;16.30;10.77;;;;;;;-141.28;100.00;49672.75;5070907;28;20714;-75
2022/09/10 00:19:36;;;;;;;12.30;10.03;;;;;;;-141.28;100.00;49676.66;5071015;28;20192;-76
2022/09/10 00:22:03;;;;;;;14.07;9.30;;;;;;;-141.28;100.00;49678.63;5083513;28;20200;-74
2022/09/10 00:24:33;;;;;;;13.43;9.73;;;;;;;-141.28;100.00;49670.78;5090127;28;20196;-77
2022/09/10 00:27:02;;;;;;;10.73;9.00;;;;;;;-141.28;100.00;49696.28;5080797;28;20202;-73
2022/09/10 00:29:31;;;;;;;11.97;9.20;;;;;;;-141.28;100.00;49698.25;5092200;28;20207;-74
2022/09/10 00:31:58;;;;;;;14.80;9.77;;;;;;;-141.28;100.00;49694.31;5104565;28;20286;-74
2022/09/10 00:34:25;;;;;;;14.17;8.77;;;;;;;-141.28;100.00;49696.28;5090294;28;20199;-76
2022/09/10 00:36:58;;;;;;;12.07;9.47;;;;;;;-141.28;100.00;49713.94;5077124;28;20231;-75
2022/09/10 00:39:25;;;;;;;11.57;9.20;;;;;;;-141.28;100.00;49755.16;5083016;28;20224;-76
2022/09/10 00:41:56;;;;;;;15.70;8.93;;;;;;;-141.28;100.00;49768.91;5086082;28;20204;-76
2022/09/10 00:45:05;;;;;;;10.67;8.40;;;;;;;-141.28;100.00;49847.41;5077347;28;20244;-76
2022/09/10 00:47:39;;;;;;;12.20;8.80;;;;;;;-141.28;100.00;49914.13;5058970;28;20253;-75
2022/09/10 00:50:16;;;;;;;12.43;9.23;;;;;;;-141.28;100.00;49843.47;5075179;28;20191;-74
2022/09/10 00:52:46;;;;;;;11.63;9.17;;;;;;;-141.28;100.00;49776.75;5076649;28;20188;-75
2022/09/10 00:55:14;;;;;;;15.73;9.43;;;;;;;-141.28;100.00;49755.16;5076910;28;20212;-75
2022/09/10 00:57:42;;;;;;;12.43;9.53;;;;;;;-141.28;100.00;49717.88;5104048;28;20234;-75
2022/09/10 01:00:12;;;;;;;13.17;9.63;;;;;;;-141.28;100.00;49757.13;5101484;28;20214;-75
2022/09/10 01:02:43;;;;;;;21.07;9.57;;;;;;;-141.28;100.00;49768.91;5107458;28;20324;-74
2022/09/10 01:05:12;;;;;;;15.83;9.33;;;;;;;-141.28;100.00;49747.31;5102024;28;20252;-75
2022/09/10 01:07:41;;;;;;;10.87;9.77;;;;;;;-141.28;100.00;49662.94;5113213;28;20203;-75
2022/09/10 01:10:14;;;;;;;12.43;8.67;;;;;;;-141.28;100.00;49609.94;5084175;28;20196;-76
2022/09/10 01:13:17;;;;;;;13.93;9.47;;;;;;;-141.28;100.00;49694.31;5073756;28;20573;-75
2022/09/10 01:15:55;;;;;;;9.80;8.80;;;;;;;-141.28;100.00;49731.63;5062908;28;20191;-78
2022/09/10 01:18:33;;;;;;;15.13;9.07;;;;;;;-141.28;100.00;49733.56;5093901;28;20305;-77
2022/09/10 01:21:24;;;;;;;13.73;9.37;;;;;;;-141.28;100.00;49806.19;5089822;28;20186;-76
2022/09/10 01:24:24;;;;;;;12.37;10.43;;;;;;;-141.28;100.00;49780.69;5108965;28;20191;-76
2022/09/10 01:27:27;;;;;;;15.47;9.20;;;;;;;-141.28;100.00;49884.69;5113328;28;20199;-75
2022/09/10 01:30:03;;;;;;;16.93;10.30;;;;;;;-141.28;100.00;49872.91;5084788;28;20226;-76
2022/09/10 01:32:36;;;;;;;15.50;10.00;;;;;;;-141.28;100.00;49761.06;5113535;28;20218;-73
2022/09/10 01:35:14;;;;;;;14.70;9.53;;;;;;;-141.28;100.00;49706.09;5112292;28;20271;-75
2022/09/10 01:37:45;;;;;;;11.20;7.93;;;;;;;-141.28;100.00;49729.66;5113989;28;20642;-74
2022/09/10 01:40:13;;;;;;;13.50;8.80;;;;;;;-141.28;100.00;49743.38;5100764;28;20195;-74
2022/09/10 01:42:41;;;;;;;10.30;8.53;;;;;;;-141.28;100.00;49712.00;5073586;28;20579;-74
2022/09/10 01:45:14;;;;;;;11.13;8.07;;;;;;;-141.28;100.00;49731.63;5074073;28;20228;-76
2022/09/10 01:48:16;;;;;;;10.37;7.10;;;;;;;-141.28;100.00;49808.16;5073379;28;20200;-76
2022/09/10 01:50:50;;;;;;;10.57;7.63;;;;;;;-141.28;100.00;49867.03;5092620;28;20205;-78
2022/09/10 01:53:32;;;;;;;13.30;7.60;;;;;;;-141.28;100.00;49863.09;5101607;28;20199;-75
2022/09/10 01:56:05;;;;;;;12.27;7.97;;;;;;;-141.28;100.00;49870.94;5075902;28;20404;-74
2022/09/10 01:58:36;;;;;;;9.83;7.17;;;;;;;-141.28;100.00;49851.31;5076329;28;20647;-76
2022/09/10 02:01:18;;;;;;;11.67;8.00;;;;;;;-141.28;100.00;49853.28;5076419;28;20632;-75
2022/09/10 02:03:50;;;;;;;10.20;7.70;;;;;;;-141.28;100.00;49878.81;5081479;28;20254;-73
2022/09/10 02:06:27;;;;;;;12.13;7.60;;;;;;;-141.28;100.00;49831.69;5072790;28;20196;-75
2022/09/10 02:08:56;;;;;;;9.97;8.03;;;;;;;-141.28;100.00;49823.84;5100363;28;20195;-74
2022/09/10 02:11:24;;;;;;;11.20;8.70;;;;;;;-141.28;100.00;49816.00;5100646;28;20229;-74
2022/09/10 02:13:53;;;;;;;16.10;7.77;;;;;;;-141.28;100.00;49729.66;5103312;28;20234;-77
2022/09/10 02:16:29;;;;;;;13.20;8.67;;;;;;;-141.28;100.00;49741.44;5095253;28;20225;-75
2022/09/10 02:18:59;;;;;;;12.07;8.70;;;;;;;-141.28;100.00;49733.56;5084535;28;20203;-75
2022/09/10 02:21:26;;;;;;;15.30;8.40;;;;;;;-141.28;100.00;49698.25;5099364;28;20195;-75
2022/09/10 02:23:57;;;;;;;9.70;8.20;;;;;;;-141.28;100.00;49682.56;5072567;28;20220;-75
2022/09/10 02:26:26;;;;;;;9.33;8.30;;;;;;;-141.28;100.00;49602.09;5088944;28;20202;-74
2022/09/10 02:28:53;;;;;;;13.87;8.80;;;;;;;-141.28;100.00;49588.34;5092553;28;20245;-75
2022/09/10 02:31:22;;;;;;;14.03;8.23;;;;;;;-141.28;100.00;49568.75;5088774;28;20298;-76
2022/09/10 02:33:49;;;;;;;9.23;8.30;;;;;;;-141.28;100.00;49592.28;5072810;28;20671;-76
2022/09/10 02:36:18;;;;;;;14.80;8.37;;;;;;;-141.28;100.00;49592.28;5086107;28;20192;-77
2022/09/10 02:38:45;;;;;;;12.77;8.63;;;;;;;-141.28;100.00;49588.34;5071855;28;20646;-76
2022/09/10 02:41:14;;;;;;;15.03;8.43;;;;;;;-141.28;100.00;49580.50;5077266;28;20195;-76
2022/09/10 02:43:41;;;;;;;11.17;8.57;;;;;;;-141.28;100.00;49590.31;5087022;28;20678;-74
2022/09/10 02:46:08;;;;;;;11.07;7.83;;;;;;;-141.28;100.00;49564.81;5085087;28;20230;-75
2022/09/10 02:48:38;;;;;;;10.50;8.93;;;;;;;-141.28;100.00;49556.97;5104768;28;20196;-76
2022/09/10 02:51:04;;;;;;;8.87;7.93;;;;;;;-141.28;100.00;49541.25;5091684;28;20286;-76
2022/09/10 02:53:34;;;;;;;11.47;8.63;;;;;;;-141.28;100.00;49537.34;5111701;28;20319;-75
2022/09/10 02:56:01;;;;;;;11.73;8.63;;;;;;;-141.28;100.00;49553.03;5110382;28;20194;-75
2022/09/10 02:58:32;;;;;;;13.77;8.63;;;;;;;-141.28;100.00;49515.75;5111699;28;20276;-74
2022/09/10 03:01:07;;;;;;;15.43;8.57;;;;;;;-141.28;100.00;49588.34;5109714;28;20208;-75
2022/09/10 03:03:36;;;;;;;17.93;9.60;;;;;;;-141.28;100.00;49560.88;5111891;28;20237;-77
2022/09/10 03:06:03;;;;;;;9.27;8.33;;;;;;;-141.28;100.00;49576.59;5093880;28;20191;-77
2022/09/10 03:08:31;;;;;;;15.80;8.87;;;;;;;-141.28;100.00;49566.78;5092230;28;20581;-76
2022/09/10 03:10:58;;;;;;;13.60;8.77;;;;;;;-141.28;100.00;49547.16;5095930;28;20240;-76
2022/09/10 03:13:26;;;;;;;11.17;8.70;;;;;;;-141.28;100.00;49509.88;5099183;28;20291;-74
2022/09/10 03:15:53;;;;;;;10.83;8.70;;;;;;;-141.28;100.00;49553.03;5108412;28;20270;-77
2022/09/10 03:18:22;;;;;;;16.20;9.53;;;;;;;-141.28;100.00;49541.25;5110907;28;20226;-77
2022/09/10 03:20:52;;;;;;;10.57;9.03;;;;;;;-141.28;100.00;49560.88;5110638;28;20201;-73
2022/09/10 03:23:19;;;;;;;13.57;9.07;;;;;;;-141.28;100.00;49560.88;5097959;28;20210;-75
2022/09/10 03:25:46;;;;;;;13.40;9.53;;;;;;;-141.28;100.00;49553.03;5090654;28;20196;-75
2022/09/10 03:28:14;;;;;;;14.97;10.57;;;;;;;-141.28;100.00;49560.88;5090447;28;20223;-75
2022/09/10 03:30:41;;;;;;;13.57;9.47;;;;;;;-141.28;100.00;49507.91;5110893;28;20649;-77
2022/09/10 03:33:10;;;;;;;25.07;10.10;;;;;;;-141.28;100.00;49511.84;5108018;28;20194;-75
2022/09/10 03:35:37;;;;;;;16.03;9.33;;;;;;;-141.28;100.00;49525.56;5091486;28;20283;-76
2022/09/10 03:38:07;;;;;;;16.63;10.40;;;;;;;-141.28;100.00;49537.34;5090673;28;20230;-77
2022/09/10 03:40:37;;;;;;;16.33;9.53;;;;;;;-141.28;100.00;49572.66;5110759;28;20268;-74
2022/09/10 03:43:05;;;;;;;11.47;8.93;;;;;;;-141.28;100.00;49596.22;5104546;28;20298;-75
2022/09/10 03:45:32;;;;;;;11.30;9.60;;;;;;;-141.28;100.00;49580.50;5071529;28;20200;-74
2022/09/10 03:47:59;;;;;;;12.80;9.10;;;;;;;-141.28;100.00;49562.84;5101870;28;20211;-76
2022/09/10 03:50:28;;;;;;;19.10;9.90;;;;;;;-141.28;100.00;49541.25;5102153;28;20196;-75
2022/09/10 03:52:55;;;;;;;21.27;10.40;;;;;;;-141.28;100.00;49529.50;5106523;28;20200;-75
2022/09/10 03:55:24;;;;;;;16.90;9.33;;;;;;;-141.28;100.00;49519.69;5111184;28;20252;-77
2022/09/10 03:57:52;;;;;;;21.50;9.77;;;;;;;-141.28;100.00;49502.03;5107040;28;20281;-74
2022/09/10 04:00:19;;;;;;;13.53;9.30;;;;;;;-141.28;100.00;49494.16;5093145;28;20200;-75
2022/09/10 04:02:47;;;;;;;10.70;8.70;;;;;;;-141.28;100.00;49486.31;5093754;28;20205;-75
2022/09/10 04:05:15;;;;;;;16.20;8.90;;;;;;;-141.28;100.00;49427.44;5074984;28;20203;-75
2022/09/10 04:07:42;;;;;;;14.10;9.47;;;;;;;-141.28;100.00;49368.59;5070984;28;20234;-75
2022/09/10 04:10:10;;;;;;;14.20;9.33;;;;;;;-141.28;100.00;49384.28;5071194;28;20279;-76
2022/09/10 04:12:39;;;;;;;10.07;8.60;;;;;;;-141.28;100.00;49399.97;5073021;28;20701;-76
2022/09/10 04:15:07;;;;;;;13.77;8.60;;;;;;;-141.28;100.00;49398.03;5080725;28;20283;-75
2022/09/10 04:17:34;;;;;;;16.27;8.90;;;;;;;-141.28;100.00;49403.91;5096905;28;20216;-75
2022/09/10 04:20:01;;;;;;;12.47;8.63;;;;;;;-141.28;100.00;49423.53;5080638;28;20196;-76
2022/09/10 04:22:28;;;;;;;15.73;8.80;;;;;;;-141.28;100.00;49427.44;5085640;28;20215;-75
2022/09/10 04:24:55;;;;;;;18.73;8.67;;;;;;;-141.28;100.00;49464.72;5074959;28;21840;-75
2022/09/10 04:27:23;;;;;;;11.90;8.60;;;;;;;-141.28;100.00;49458.84;5074604;28;20243;-78
2022/09/10 04:29:52;;;;;;;17.57;8.57;;;;;;;-141.28;100.00;49541.25;5078497;28;20198;-74
2022/09/10 04:32:19;;;;;;;15.20;9.00;;;;;;;-141.28;100.00;49570.69;5084754;28;20203;-74
2022/09/10 04:34:47;;;;;;;16.43;8.97;;;;;;;-141.28;100.00;49553.03;5074520;28;20229;-75
2022/09/10 04:37:17;;;;;;;16.10;8.83;;;;;;;-141.28;100.00;49566.78;5095812;28;20628;-77
2022/09/10 04:39:44;;;;;;;11.63;8.33;;;;;;;-141.28;100.00;49594.25;5091419;28;20275;-73
2022/09/10 04:42:19;;;;;;;24.77;9.53;;;;;;;-141.28;100.00;49604.06;5074321;28;20196;-76
2022/09/10 04:44:46;;;;;;;21.63;9.50;;;;;;;-141.28;100.00;49617.78;5078110;28;20219;-74
2022/09/10 04:47:14;;;;;;;16.07;8.50;;;;;;;-141.28;100.00;49606.03;5094024;28;20210;-76
2022/09/10 04:49:42;;;;;;;21.80;8.93;;;;;;;-141.28;100.00;49588.34;5096170;28;20211;-76
2022/09/10 04:52:10;;;;;;;16.07;8.77;;;;;;;-141.28;100.00;49590.31;5104238;28;20191;-76
2022/09/10 04:54:38;;;;;;;15.43;8.23;;;;;;;-141.28;100.00;49543.22;5097379;28;20195;-76
2022/09/10 04:57:06;;;;;;;16.60;8.20;;;;;;;-141.28;100.00;49519.69;5093767;28;20199;-76
2022/09/10 04:59:34;;;;;;;13.53;9.03;;;;;;;-141.28;100.00;49513.78;5094181;28;20622;-75
2022/09/10 05:02:02;;;;;;;17.10;8.87;;;;;;;-141.28;100.00;49525.56;5094530;28;20300;-75
2022/09/10 05:04:32;;;;;;;15.87;8.80;;;;;;;-141.28;100.00;49556.97;5109013;28;20285;-76
2022/09/10 05:06:59;;;;;;;12.03;8.77;;;;;;;-141.28;100.00;49509.88;5087068;28;20199;-74
2022/09/10 05:09:29;;;;;;;14.70;9.00;;;;;;;-141.28;100.00;49476.50;5113313;28;20187;-75
2022/09/10 05:11:57;;;;;;;12.80;8.77;;;;;;;-141.28;100.00;49474.53;5113140;28;20195;-74
2022/09/10 05:14:26;;;;;;;15.80;9.07;;;;;;;-141.28;100.00;49484.34;5097565;28;20191;-74
2022/09/10 05:16:54;;;;;;;17.13;9.33;;;;;;;-141.28;100.00;49490.25;5111210;28;20203;-74
2022/09/10 05:19:24;;;;;;;22.73;9.83;;;;;;;-141.28;100.00;49498.09;5101356;28;20644;-74
2022/09/10 05:21:52;;;;;;;21.20;10.23;;;;;;;-141.28;100.00;49502.03;5098668;28;20191;-76
2022/09/10 05:24:19;;;;;;;18.53;9.70;;;;;;;-141.28;100.00;49470.63;5112353;28;20199;-75
2022/09/10 05:26:46;;;;;;;26.53;10.77;;;;;;;-141.28;100.00;49423.53;5110887;28;20561;-74
2022/09/10 05:29:15;;;;;;;20.00;10.73;;;;;;;-141.28;100.00;49392.13;5113146;28;20693;-75
2022/09/10 05:31:44;;;;;;;19.27;10.73;;;;;;;-141.28;100.00;49399.97;5095834;28;20674;-74
2022/09/10 05:34:11;;;;;;;19.73;10.70;;;;;;;-141.28;100.00;49376.44;5093034;28;20215;-75
2022/09/10 05:36:40;;;;;;;20.93;10.73;;;;;;;-141.28;100.00;49368.59;5095481;28;20194;-76
2022/09/10 05:39:08;;;;;;;13.20;10.27;;;;;;;-141.28;100.00;49321.50;5112474;28;20219;-74
2022/09/10 05:41:36;;;;;;;15.03;10.80;;;;;;;-141.28;100.00;49241.03;5098680;28;20199;-76
2022/09/10 05:44:04;;;;;;;16.37;10.60;;;;;;;-141.28;100.00;49199.84;5086347;28;20225;-76
2022/09/10 05:46:31;;;;;;;17.67;10.13;;;;;;;-141.28;100.00;49221.41;5086754;28;20283;-77
2022/09/10 05:48:58;;;;;;;16.50;10.70;;;;;;;-141.28;100.00;49256.75;5073362;28;20199;-77
2022/09/10 05:51:28;;;;;;;18.30;10.50;;;;;;;-141.28;100.00;49252.81;5088212;28;20192;-73
2022/09/10 05:53:56;;;;;;;15.27;9.63;;;;;;;-141.28;100.00;49244.97;5085024;28;20196;-77
2022/09/10 05:56:25;;;;;;;13.40;9.13;;;;;;;-141.28;100.00;49239.09;5073152;28;20288;-75
2022/09/10 05:58:53;;;;;;;15.80;10.37;;;;;;;-141.28;100.00;49229.28;5073089;28;20220;-77
2022/09/10 06:01:20;;;;;;;21.57;12.00;;;;;;;-141.28;100.00;49217.50;5102699;28;20188;-76
2022/09/10 06:03:47;;;;;;;13.07;10.03;;;;;;;-141.28;100.00;49252.81;5084065;28;20228;-74
2022/09/10 06:06:14;;;;;;;16.53;9.17;;;;;;;-141.28;100.00;49262.63;5100641;28;20285;-76
2022/09/10 06:08:42;;;;;;;12.30;9.70;;;;;;;-141.28;100.00;49274.41;5112063;28;20198;-77
2022/09/10 06:11:10;;;;;;;18.10;9.73;;;;;;;-141.28;100.00;49274.41;5096826;28;20615;-77
2022/09/10 06:13:41;;;;;;;20.20;11.17;;;;;;;-141.28;100.00;49305.78;5103251;28;20244;-74
2022/09/10 06:16:10;;;;;;;17.47;11.40;;;;;;;-141.28;100.00;49329.34;5093211;28;20227;-76
2022/09/10 06:18:44;;;;;;;20.60;11.80;;;;;;;-141.28;100.00;49337.19;5092649;28;20599;-74
2022/09/10 06:21:13;;;;;;;19.33;12.37;;;;;;;-141.28;100.00;49388.22;5074760;28;20558;-78
2022/09/10 06:23:41;;;;;;;18.53;10.77;;;;;;;-141.28;100.00;49427.44;5104563;28;20203;-77
2022/09/10 06:26:12;;;;;;;13.27;10.87;;;;;;;-141.28;100.00;49443.16;5092154;28;20256;-76
2022/09/10 06:28:41;;;;;;;12.97;10.97;;;;;;;-141.28;100.00;49484.34;5108042;28;20687;-75
2022/09/10 06:31:13;;;;;;;19.03;11.23;;;;;;;-141.28;100.00;49505.94;5112387;28;20203;-75
2022/09/10 06:33:40;;;;;;;16.27;10.33;;;;;;;-141.28;100.00;49582.47;5104400;28;20196;-74
2022/09/10 06:36:07;;;;;;;25.83;11.30;;;;;;;-141.28;100.00;49674.72;5082939;28;20202;-76
2022/09/10 06:38:35;;;;;;;14.30;10.40;;;;;;;-141.28;100.00;49764.97;5083267;28;20222;-76
2022/09/10 06:41:04;;;;;;;23.43;11.67;;;;;;;-141.28;100.00;49874.88;5089545;28;20238;-76
2022/09/10 06:43:35;;;;;;;14.37;11.37;;;;;;;-141.28;100.00;50047.59;5087126;28;20299;-75
2022/09/10 06:46:09;;;;;;;18.83;10.87;;;;;;;-141.28;100.00;50071.13;5085564;28;20270;-75
2022/09/10 06:48:39;;;;;;;16.40;11.17;;;;;;;-141.28;100.00;50086.84;5092760;28;20239;-74
2022/09/10 06:51:09;;;;;;;12.47;10.67;;;;;;;-141.28;100.00;50104.50;5079841;28;20193;-75
2022/09/10 06:53:37;;;;;;;19.40;11.40;;;;;;;-141.28;100.00;50137.88;5112166;28;20213;-76
2022/09/10 06:56:07;;;;;;;31.37;12.00;;;;;;;-141.28;100.00;50251.69;5111621;28;20201;-74
2022/09/10 06:58:35;;;;;;;22.80;11.83;;;;;;;-141.28;100.00;50263.47;5103101;28;20227;-76
2022/09/10 07:01:08;;;;;;;27.50;12.90;;;;;;;-141.28;100.00;50389.09;5093805;28;20279;-75
2022/09/10 07:03:36;;;;;;;23.57;11.97;;;;;;;-141.28;100.00;50418.53;5100405;28;20266;-74
2022/09/10 07:06:04;;;;;;;24.03;12.67;;;;;;;-141.28;100.00;50355.72;5106910;28;20198;-74
2022/09/10 07:08:34;;;;;;;17.03;11.47;;;;;;;-141.28;100.00;50334.13;5098074;28;20256;-75
2022/09/10 07:11:06;;;;;;;20.47;11.10;;;;;;;-141.28;100.00;50394.97;5080693;28;20215;-77
2022/09/10 07:13:35;;;;;;;18.77;10.93;;;;;;;-141.28;100.00;50440.13;5092759;28;20203;-78
2022/09/10 07:16:04;;;;;;;21.03;10.27;;;;;;;-141.28;100.00;50520.59;5086052;28;20202;-74
2022/09/10 07:18:36;;;;;;;21.77;10.63;;;;;;;-141.28;100.00;50695.31;5091471;28;20223;-75
2022/09/10 07:21:10;;;;;;;24.93;11.13;;;;;;;-141.28;100.00;50946.59;5105276;28;20198;-76
2022/09/10 07:23:39;;;;;;;20.40;10.77;;;;;;;-141.28;100.00;51205.72;5103916;28;20203;-75
2022/09/10 07:26:08;;;;;;;22.43;10.53;;;;;;;-141.28;100.00;51437.41;5090869;28;20238;-73
2022/09/10 07:28:36;;;;;;;18.43;10.93;;;;;;;-141.28;100.00;51498.28;5099914;28;20577;-75
2022/09/10 07:31:12;;;;;;;21.93;11.03;;;;;;;-141.28;100.00;51468.81;5107563;28;20287;-77
2022/09/10 07:33:40;;;;;;;17.80;9.93;;;;;;;-141.28;100.00;51521.84;5091336;28;20282;-76
2022/09/10 07:36:09;;;;;;;22.10;9.70;;;;;;;-141.28;100.00;51661.25;5091081;28;20283;-78
2022/09/10 07:38:37;;;;;;;19.40;10.23;;;;;;;-141.28;100.00;51523.78;5073394;28;20219;-78
2022/09/10 07:41:05;;;;;;;24.53;10.40;;;;;;;-141.28;100.00;51645.53;5077880;28;20204;-75
2022/09/10 07:43:32;;;;;;;20.53;9.13;;;;;;;-141.28;100.00;51653.38;5086233;28;20220;-75
2022/09/10 07:46:00;;;;;;;19.77;9.53;;;;;;;-141.28;100.00;51673.03;5084035;28;20195;-74
2022/09/10 07:48:28;;;;;;;14.63;8.73;;;;;;;-141.28;100.00;51594.47;5089380;28;20210;-74
2022/09/10 07:51:03;;;;;;;13.57;8.60;;;;;;;-141.28;100.00;51535.56;5116083;28;20194;-76
2022/09/10 07:53:31;;;;;;;19.00;9.30;;;;;;;-141.28;100.00;51472.75;5116414;28;20229;-76
2022/09/10 07:56:03;;;;;;;22.70;9.63;;;;;;;-141.28;100.00;51425.63;5103652;28;20201;-76
2022/09/10 07:58:31;;;;;;;20.73;9.47;;;;;;;-141.28;100.00;51502.19;5104849;28;20228;-77
2022/09/10 08:01:01;;;;;;;24.17;10.57;;;;;;;-141.28;100.00;51402.06;5098844;28;20199;-75
2022/09/10 08:03:28;;;;;;;21.00;9.53;;;;;;;-141.28;100.00;51423.66;5106374;28;20195;-75
2022/09/10 08:06:02;;;;;;;17.73;8.60;;;;;;;-141.28;100.00;51445.25;5102841;28;20191;-78
2022/09/10 08:08:31;;;;;;;12.60;7.97;;;;;;;-141.28;100.00;51409.91;5095512;28;20207;-75
2022/09/10 08:11:05;;;;;;;15.20;8.13;;;;;;;-141.28;100.00;51409.91;5099946;28;20187;-77
2022/09/10 08:13:32;;;;;;;14.10;8.63;;;;;;;-141.28;100.00;51388.31;5115759;28;20191;-75
2022/09/10 08:16:00;;;;;;;15.73;7.83;;;;;;;-141.28;100.00;51360.81;5076832;28;20209;-76
2022/09/10 08:18:29;;;;;;;11.10;7.40;;;;;;;-141.28;100.00;51282.28;5086678;28;20669;-75
2022/09/10 08:20:57;;;;;;;15.93;7.90;;;;;;;-141.28;100.00;51178.25;5090367;28;20656;-77
2022/09/10 08:23:27;;;;;;;17.07;8.20;;;;;;;-141.28;100.00;51093.81;5094633;28;20208;-74
2022/09/10 08:25:55;;;;;;;19.67;8.07;;;;;;;-141.28;100.00;51084.00;5095134;28;20208;-75
2022/09/10 08:28:26;;;;;;;15.43;8.07;;;;;;;-141.28;100.00;51064.38;5078474;28;20203;-74
2022/09/10 08:30:57;;;;;;;20.30;8.20;;;;;;;-141.28;100.00;51013.31;5092036;28;20192;-75
2022/09/10 08:33:26;;;;;;;15.60;7.67;;;;;;;-141.28;100.00;51076.16;5070597;28;20203;-75
2022/09/10 08:35:57;;;;;;;13.37;7.37;;;;;;;-141.28;100.00;50989.78;5107058;28;20225;-76
2022/09/10 08:38:29;;;;;;;13.53;7.40;;;;;;;-141.28;100.00;50879.84;5114320;28;20291;-77
2022/09/10 08:40:57;;;;;;;10.40;7.10;;;;;;;-141.28;100.00;50852.34;5088426;28;20732;-74
2022/09/10 08:43:35;;;;;;;13.10;7.57;;;;;;;-141.28;100.00;50722.78;5078249;28;20686;-76
2022/09/10 08:46:05;;;;;;;10.80;7.00;;;;;;;-141.28;100.00;50834.69;5087295;28;20287;-76
2022/09/10 08:48:39;;;;;;;8.73;7.73;;;;;;;-141.28;100.00;50860.19;5076054;28;20294;-75
2022/09/10 08:51:13;;;;;;;14.40;6.73;;;;;;;-141.28;100.00;50848.44;5083584;28;20509;-75
2022/09/10 08:53:51;;;;;;;12.07;7.37;;;;;;;-141.28;100.00;50903.41;5077947;28;20200;-77
2022/09/10 08:56:23;;;;;;;12.77;7.10;;;;;;;-141.28;100.00;50962.28;5085944;28;20257;-77
2022/09/10 08:59:01;;;;;;;12.77;7.40;;;;;;;-141.28;100.00;51032.97;5086207;28;20219;-80
2022/09/10 09:01:39;;;;;;;9.97;7.37;;;;;;;-141.28;100.00;51085.97;5113191;28;20201;-77
2022/09/10 09:04:15;;;;;;;14.83;7.60;;;;;;;-141.28;100.00;51040.81;5101760;28;20231;-76
2022/09/10 09:06:47;;;;;;;9.40;7.40;;;;;;;-141.28;100.00;51084.00;5113277;28;20190;-74
2022/09/10 09:09:17;;;;;;;17.17;8.37;;;;;;;-141.28;100.00;51036.88;5102634;28;20207;-77
2022/09/10 09:11:52;;;;;;;11.53;7.70;;;;;;;-141.28;100.00;51013.31;5111148;28;20195;-75
2022/09/10 09:14:34;;;;;;;9.77;7.07;;;;;;;-141.28;100.00;50976.03;5114050;28;20209;-74
2022/09/10 09:17:22;;;;;;;12.13;7.53;;;;;;;-141.28;100.00;51036.88;5067051;28;20291;-76
2022/09/10 09:20:04;;;;;;;13.10;8.10;;;;;;;-141.28;100.00;51025.09;5093847;28;20698;-77
2022/09/10 09:22:42;;;;;;;12.27;7.60;;;;;;;-141.28;100.00;51072.22;5073957;28;20655;-76
2022/09/10 09:25:22;;;;;;;10.97;7.37;;;;;;;-141.28;100.00;51042.78;5080679;28;20229;-76
2022/09/10 09:27:54;;;;;;;18.43;8.27;;;;;;;-141.28;100.00;51048.66;5106781;28;20198;-76
2022/09/10 09:30:24;;;;;;;13.63;7.60;;;;;;;-141.28;100.00;51017.25;5102708;28;20289;-75
2022/09/10 09:33:04;;;;;;;13.90;8.33;;;;;;;-141.28;100.00;51036.88;5111599;28;20187;-76
2022/09/10 09:35:35;;;;;;;10.50;7.97;;;;;;;-141.28;100.00;51040.81;5113684;28;20237;-78
2022/09/10 09:38:22;;;;;;;15.00;9.00;;;;;;;-141.28;100.00;51070.25;5086124;28;20296;-79
2022/09/10 09:40:55;;;;;;;13.53;8.73;;;;;;;-141.28;100.00;51044.75;5092605;28;20302;-76
2022/09/10 09:43:44;;;;;;;10.80;8.50;;;;;;;-141.28;100.00;51076.16;5104606;28;20218;-74
2022/09/10 09:46:15;;;;;;;13.27;8.73;;;;;;;-141.28;100.00;51040.81;5086805;28;20200;-75
2022/09/10 09:48:43;;;;;;;18.47;8.13;;;;;;;-141.28;100.00;50976.03;5101959;28;20238;-76
2022/09/10 09:51:14;;;;;;;17.90;9.40;;;;;;;-141.28;100.00;51019.22;5099770;28;20207;-76
2022/09/10 09:53:41;;;;;;;12.07;7.83;;;;;;;-141.28;100.00;50999.59;5100334;28;20234;-75
2022/09/10 09:56:21;;;;;;;18.07;8.20;;;;;;;-141.28;100.00;50989.78;5073394;28;20206;-76
2022/09/10 09:58:49;;;;;;;16.83;8.40;;;;;;;-141.28;100.00;50999.59;5075595;28;20196;-76
2022/09/10 10:01:21;;;;;;;10.80;7.30;;;;;;;-141.28;100.00;51019.22;5093481;28;20204;-75
2022/09/10 10:04:01;;;;;;;13.13;7.40;;;;;;;-141.28;100.00;50999.59;5080715;28;20712;-75
2022/09/10 10:06:31;;;;;;;14.70;7.83;;;;;;;-141.28;100.00;50958.38;5086029;28;20277;-74
2022/09/10 10:09:04;;;;;;;11.97;7.20;;;;;;;-141.28;100.00;50919.09;5095365;28;20192;-75
2022/09/10 10:11:45;;;;;;;16.20;7.47;;;;;;;-141.28;100.00;50926.94;5102413;28;20198;-76
2022/09/10 10:14:21;;;;;;;13.30;7.33;;;;;;;-141.28;100.00;50803.28;5098017;28;20277;-77
2022/09/10 10:16:51;;;;;;;12.93;7.50;;;;;;;-141.28;100.00;50644.28;5099858;28;20203;-75
2022/09/10 10:19:30;;;;;;;10.07;7.03;;;;;;;-141.28;100.00;50506.88;5080071;28;20242;-76
2022/09/10 10:21:58;;;;;;;21.70;12.40;;;;;;;-141.28;100.00;50553.97;5076799;28;20574;-75
2022/09/10 10:24:31;;;;;;;15.50;11.13;;;;;;;-141.28;100.00;50703.16;5082090;28;20646;-75
2022/09/10 10:27:01;;;;;;;14.17;8.10;;;;;;;-141.28;100.00;50618.75;5092864;28;20647;-79
2022/09/10 10:29:28;;;;;;;14.67;7.23;;;;;;;-141.28;100.00;50290.97;5081806;28;20738;-76
2022/09/10 10:31:56;;;;;;;17.40;7.00;;;;;;;-141.28;100.00;50145.72;5086971;28;20196;-77
2022/09/10 10:34:55;;;;;;;16.53;7.77;;;;;;;-141.28;100.00;50010.28;5085106;28;20195;-76
2022/09/10 10:37:32;;;;;;;10.80;7.33;;;;;;;-141.28;100.00;49878.81;5070230;28;20215;-79
2022/09/10 10:40:18;;;;;;;16.23;6.80;;;;;;;-141.28;100.00;49764.97;5092041;28;20696;-76
2022/09/10 10:42:58;;;;;;;12.87;7.67;;;;;;;-141.28;100.00;49721.81;5092939;28;20266;-76
2022/09/10 10:45:37;;;;;;;13.67;7.20;;;;;;;-141.28;100.00;49857.22;5072451;28;20198;-76
2022/09/10 10:48:11;;;;;;;15.00;6.87;;;;;;;-141.28;100.00;49607.97;5075139;28;20291;-77
2022/09/10 10:50:52;;;;;;;14.17;7.00;;;;;;;-141.28;100.00;49423.53;5103113;28;20711;-77
2022/09/10 10:53:27;;;;;;;11.63;7.23;;;;;;;-141.28;100.00;49541.25;5105420;28;20662;-76
2022/09/10 10:56:03;;;;;;;15.67;7.27;;;;;;;-141.28;100.00;49682.56;5104580;28;20570;-77
2022/09/10 10:58:50;;;;;;;11.97;6.97;;;;;;;-141.28;100.00;49702.19;5103924;28;20203;-75
2022/09/10 11:01:21;;;;;;;14.87;7.27;;;;;;;-141.28;100.00;49778.72;5109676;28;20229;-75
2022/09/10 11:03:59;;;;;;;17.43;7.23;;;;;;;-141.28;100.00;49694.31;5111466;28;20605;-77
2022/09/10 11:06:36;;;;;;;10.80;7.07;;;;;;;-141.28;100.00;49500.06;5071601;28;20274;-77
2022/09/10 11:09:08;;;;;;;15.20;7.27;;;;;;;-141.28;100.00;49184.13;5074143;28;20197;-74
2022/09/10 11:11:40;;;;;;;11.30;7.30;;;;;;;-141.28;100.00;49011.47;5102138;28;20204;-74
2022/09/10 11:14:19;;;;;;;15.03;7.27;;;;;;;-141.28;100.00;49082.13;5077003;28;20198;-75
2022/09/10 11:16:50;;;;;;;12.63;7.00;;;;;;;-141.28;100.00;48991.84;5083919;28;20200;-76
2022/09/10 11:19:24;;;;;;;14.50;6.90;;;;;;;-141.28;100.00;48864.34;5071997;28;20202;-75